sensor_id;sensor_type;location;lat;lon;timestamp;P1;durP1;ratioP1;P2;durP2;ratioP2
69502;SDS011;56704;54.242;12.442;2023-04-03T00:01:06;5.50;;;0.40;;
69502;SDS011;56704;54.242;12.442;2023-04-03T00:03:32;1.80;;;0.30;;
69502;SDS011;56704;54.242;12.442;2023-04-03T00:05:59;3.85;;;0.30;;
69502;SDS011;56704;54.242;12.442;2023-04-03T00:08:28;2.38;;;0.20;;
69502;SDS011;56704;54.242;12.442;2023-04-03T00:10:55;4.53;;;0.50;;
69502;SDS011;56704;54.242;12.442;2023-04-03T00:13:22;2.63;;;0.17;;
69502;SDS011;56704;54.242;12.442;2023-04-03T00:15:49;8.63;;;1.50;;
69502;SDS011;56704;54.242;12.442;2023-04-03T00:18:15;5.53;;;0.80;;
69502;SDS011;56704;54.242;12.442;2023-04-03T00:20:42;9.40;;;1.00;;
69502;SDS011;56704;54.242;12.442;2023-04-03T00:23:09;8.88;;;1.70;;
69502;SDS011;56704;54.242;12.442;2023-04-03T00:25:39;6.83;;;1.20;;
69502;SDS011;56704;54.242;12.442;2023-04-03T00:28:06;7.70;;;0.77;;
69502;SDS011;56704;54.242;12.442;2023-04-03T00:30:33;4.95;;;0.60;;
69502;SDS011;56704;54.242;12.442;2023-04-03T00:33:00;6.82;;;0.82;;
69502;SDS011;56704;54.242;12.442;2023-04-03T00:35:26;6.78;;;1.05;;
69502;SDS011;56704;54.242;12.442;2023-04-03T00:37:53;6.97;;;0.70;;
69502;SDS011;56704;54.242;12.442;2023-04-03T00:40:22;5.10;;;0.70;;
69502;SDS011;56704;54.242;12.442;2023-04-03T00:42:54;3.50;;;0.32;;
69502;SDS011;56704;54.242;12.442;2023-04-03T00:45:27;6.50;;;0.82;;
69502;SDS011;56704;54.242;12.442;2023-04-03T00:47:56;5.38;;;0.50;;
69502;SDS011;56704;54.242;12.442;2023-04-03T00:50:25;4.83;;;0.50;;
69502;SDS011;56704;54.242;12.442;2023-04-03T00:52:52;3.80;;;0.40;;
69502;SDS011;56704;54.242;12.442;2023-04-03T00:55:19;4.88;;;0.43;;
69502;SDS011;56704;54.242;12.442;2023-04-03T00:57:46;4.68;;;0.82;;
69502;SDS011;56704;54.242;12.442;2023-04-03T01:00:15;3.28;;;0.30;;
69502;SDS011;56704;54.242;12.442;2023-04-03T01:02:44;4.30;;;0.40;;
69502;SDS011;56704;54.242;12.442;2023-04-03T01:05:11;5.15;;;0.30;;
69502;SDS011;56704;54.242;12.442;2023-04-03T01:07:39;4.18;;;0.30;;
69502;SDS011;56704;54.242;12.442;2023-04-03T01:10:09;2.65;;;0.25;;
69502;SDS011;56704;54.242;12.442;2023-04-03T01:12:39;1.98;;;0.10;;
69502;SDS011;56704;54.242;12.442;2023-04-03T01:15:08;4.17;;;0.40;;
69502;SDS011;56704;54.242;12.442;2023-04-03T01:17:40;4.43;;;0.32;;
69502;SDS011;56704;54.242;12.442;2023-04-03T01:20:18;3.15;;;0.20;;
69502;SDS011;56704;54.242;12.442;2023-04-03T01:23:28;5.03;;;0.50;;
69502;SDS011;56704;54.242;12.442;2023-04-03T01:26:07;4.00;;;0.20;;
69502;SDS011;56704;54.242;12.442;2023-04-03T01:28:35;4.80;;;0.67;;
69502;SDS011;56704;54.242;12.442;2023-04-03T01:31:03;3.50;;;0.30;;
69502;SDS011;56704;54.242;12.442;2023-04-03T01:33:45;1.95;;;0.20;;
69502;SDS011;56704;54.242;12.442;2023-04-03T01:36:13;1.63;;;0.25;;
69502;SDS011;56704;54.242;12.442;2023-04-03T01:38:41;4.20;;;0.40;;
69502;SDS011;56704;54.242;12.442;2023-04-03T01:41:08;3.53;;;0.23;;
69502;SDS011;56704;54.242;12.442;2023-04-03T01:43:35;3.58;;;0.22;;
69502;SDS011;56704;54.242;12.442;2023-04-03T01:46:01;2.40;;;0.10;;
69502;SDS011;56704;54.242;12.442;2023-04-03T01:48:28;4.30;;;0.22;;
69502;SDS011;56704;54.242;12.442;2023-04-03T01:50:56;6.43;;;0.20;;
69502;SDS011;56704;54.242;12.442;2023-04-03T01:53:23;1.53;;;0.10;;
69502;SDS011;56704;54.242;12.442;2023-04-03T01:55:49;1.75;;;0.10;;
69502;SDS011;56704;54.242;12.442;2023-04-03T01:58:16;2.25;;;0.22;;
69502;SDS011;56704;54.242;12.442;2023-04-03T02:00:43;2.95;;;0.10;;
69502;SDS011;56704;54.242;12.442;2023-04-03T02:03:10;4.32;;;0.25;;
69502;SDS011;56704;54.242;12.442;2023-04-03T02:05:36;4.40;;;0.50;;
69502;SDS011;56704;54.242;12.442;2023-04-03T02:08:05;2.92;;;0.20;;
69502;SDS011;56704;54.242;12.442;2023-04-03T02:10:32;3.20;;;0.15;;
69502;SDS011;56704;54.242;12.442;2023-04-03T02:12:59;3.00;;;0.20;;
69502;SDS011;56704;54.242;12.442;2023-04-03T02:15:25;3.85;;;0.10;;
69502;SDS011;56704;54.242;12.442;2023-04-03T02:17:52;1.70;;;0.37;;
69502;SDS011;56704;54.242;12.442;2023-04-03T02:20:19;2.63;;;0.20;;
69502;SDS011;56704;54.242;12.442;2023-04-03T02:22:46;2.45;;;0.20;;
69502;SDS011;56704;54.242;12.442;2023-04-03T02:25:14;3.38;;;0.10;;
69502;SDS011;56704;54.242;12.442;2023-04-03T02:27:42;2.15;;;0.10;;
69502;SDS011;56704;54.242;12.442;2023-04-03T02:30:09;2.83;;;0.30;;
69502;SDS011;56704;54.242;12.442;2023-04-03T02:32:36;3.38;;;0.20;;
69502;SDS011;56704;54.242;12.442;2023-04-03T02:35:03;3.05;;;0.65;;
69502;SDS011;56704;54.242;12.442;2023-04-03T02:37:31;3.50;;;0.25;;
69502;SDS011;56704;54.242;12.442;2023-04-03T02:39:57;2.83;;;0.20;;
69502;SDS011;56704;54.242;12.442;2023-04-03T02:42:25;4.37;;;0.20;;
69502;SDS011;56704;54.242;12.442;2023-04-03T02:44:52;3.17;;;0.10;;
69502;SDS011;56704;54.242;12.442;2023-04-03T02:47:19;1.55;;;0.13;;
69502;SDS011;56704;54.242;12.442;2023-04-03T02:49:46;4.45;;;0.20;;
69502;SDS011;56704;54.242;12.442;2023-04-03T02:52:12;2.70;;;0.15;;
69502;SDS011;56704;54.242;12.442;2023-04-03T02:54:39;3.30;;;0.30;;
69502;SDS011;56704;54.242;12.442;2023-04-03T02:57:06;3.80;;;0.40;;
69502;SDS011;56704;54.242;12.442;2023-04-03T02:59:35;2.58;;;0.30;;
69502;SDS011;56704;54.242;12.442;2023-04-03T03:02:02;2.22;;;0.22;;
69502;SDS011;56704;54.242;12.442;2023-04-03T03:04:28;1.05;;;0.00;;
69502;SDS011;56704;54.242;12.442;2023-04-03T03:06:55;3.10;;;0.30;;
69502;SDS011;56704;54.242;12.442;2023-04-03T03:09:22;2.38;;;0.10;;
69502;SDS011;56704;54.242;12.442;2023-04-03T03:11:48;3.15;;;0.20;;
69502;SDS011;56704;54.242;12.442;2023-04-03T03:14:15;3.30;;;0.25;;
69502;SDS011;56704;54.242;12.442;2023-04-03T03:16:43;0.95;;;0.10;;
69502;SDS011;56704;54.242;12.442;2023-04-03T03:19:10;2.10;;;0.10;;
69502;SDS011;56704;54.242;12.442;2023-04-03T03:21:37;2.97;;;0.20;;
69502;SDS011;56704;54.242;12.442;2023-04-03T03:24:03;1.25;;;0.10;;
69502;SDS011;56704;54.242;12.442;2023-04-03T03:26:30;2.60;;;0.10;;
69502;SDS011;56704;54.242;12.442;2023-04-03T03:28:57;4.65;;;0.40;;
69502;SDS011;56704;54.242;12.442;2023-04-03T03:31:24;3.37;;;0.27;;
69502;SDS011;56704;54.242;12.442;2023-04-03T03:33:51;1.98;;;0.20;;
69502;SDS011;56704;54.242;12.442;2023-04-03T03:36:18;2.95;;;0.15;;
69502;SDS011;56704;54.242;12.442;2023-04-03T03:38:45;3.78;;;0.30;;
69502;SDS011;56704;54.242;12.442;2023-04-03T03:41:11;2.90;;;0.10;;
69502;SDS011;56704;54.242;12.442;2023-04-03T03:43:38;1.27;;;0.10;;
69502;SDS011;56704;54.242;12.442;2023-04-03T03:46:05;3.60;;;0.40;;
69502;SDS011;56704;54.242;12.442;2023-04-03T03:48:31;2.63;;;0.13;;
69502;SDS011;56704;54.242;12.442;2023-04-03T03:50:59;3.13;;;0.20;;
69502;SDS011;56704;54.242;12.442;2023-04-03T03:53:26;4.70;;;0.25;;
69502;SDS011;56704;54.242;12.442;2023-04-03T03:55:53;4.27;;;0.50;;
69502;SDS011;56704;54.242;12.442;2023-04-03T03:58:19;5.25;;;0.60;;
69502;SDS011;56704;54.242;12.442;2023-04-03T04:00:46;4.82;;;0.45;;
69502;SDS011;56704;54.242;12.442;2023-04-03T04:03:13;3.08;;;0.20;;
69502;SDS011;56704;54.242;12.442;2023-04-03T04:05:39;2.20;;;0.20;;
69502;SDS011;56704;54.242;12.442;2023-04-03T04:08:07;0.93;;;0.10;;
69502;SDS011;56704;54.242;12.442;2023-04-03T04:10:34;4.07;;;0.20;;
69502;SDS011;56704;54.242;12.442;2023-04-03T04:13:01;1.70;;;0.10;;
69502;SDS011;56704;54.242;12.442;2023-04-03T04:15:28;2.10;;;0.20;;
69502;SDS011;56704;54.242;12.442;2023-04-03T04:17:56;3.45;;;0.10;;
69502;SDS011;56704;54.242;12.442;2023-04-03T04:20:23;2.13;;;0.20;;
69502;SDS011;56704;54.242;12.442;2023-04-03T04:22:49;1.95;;;0.10;;
69502;SDS011;56704;54.242;12.442;2023-04-03T04:25:17;3.53;;;0.20;;
69502;SDS011;56704;54.242;12.442;2023-04-03T04:27:44;5.30;;;0.20;;
69502;SDS011;56704;54.242;12.442;2023-04-03T04:30:11;1.50;;;0.40;;
69502;SDS011;56704;54.242;12.442;2023-04-03T04:32:38;2.30;;;0.10;;
69502;SDS011;56704;54.242;12.442;2023-04-03T04:35:05;4.45;;;0.30;;
69502;SDS011;56704;54.242;12.442;2023-04-03T04:37:32;3.00;;;0.10;;
69502;SDS011;56704;54.242;12.442;2023-04-03T04:39:59;2.25;;;0.20;;
69502;SDS011;56704;54.242;12.442;2023-04-03T04:42:27;5.13;;;0.30;;
69502;SDS011;56704;54.242;12.442;2023-04-03T04:44:54;3.03;;;0.20;;
69502;SDS011;56704;54.242;12.442;2023-04-03T04:47:21;2.58;;;0.15;;
69502;SDS011;56704;54.242;12.442;2023-04-03T04:49:47;3.30;;;0.20;;
69502;SDS011;56704;54.242;12.442;2023-04-03T04:52:14;2.58;;;0.20;;
69502;SDS011;56704;54.242;12.442;2023-04-03T04:54:41;3.60;;;0.40;;
69502;SDS011;56704;54.242;12.442;2023-04-03T04:57:07;3.40;;;0.37;;
69502;SDS011;56704;54.242;12.442;2023-04-03T04:59:36;3.35;;;0.60;;
69502;SDS011;56704;54.242;12.442;2023-04-03T05:02:03;3.03;;;0.10;;
69502;SDS011;56704;54.242;12.442;2023-04-03T05:04:29;4.35;;;0.30;;
69502;SDS011;56704;54.242;12.442;2023-04-03T05:06:56;3.60;;;0.20;;
69502;SDS011;56704;54.242;12.442;2023-04-03T05:09:24;2.23;;;0.20;;
69502;SDS011;56704;54.242;12.442;2023-04-03T05:11:51;3.17;;;0.10;;
69502;SDS011;56704;54.242;12.442;2023-04-03T05:14:17;3.42;;;0.25;;
69502;SDS011;56704;54.242;12.442;2023-04-03T05:16:45;5.22;;;0.50;;
69502;SDS011;56704;54.242;12.442;2023-04-03T05:19:12;4.72;;;0.30;;
69502;SDS011;56704;54.242;12.442;2023-04-03T05:21:39;3.63;;;0.40;;
69502;SDS011;56704;54.242;12.442;2023-04-03T05:24:06;3.42;;;0.30;;
69502;SDS011;56704;54.242;12.442;2023-04-03T05:26:34;3.40;;;0.40;;
69502;SDS011;56704;54.242;12.442;2023-04-03T05:29:03;4.85;;;0.50;;
69502;SDS011;56704;54.242;12.442;2023-04-03T05:31:30;4.05;;;0.55;;
69502;SDS011;56704;54.242;12.442;2023-04-03T05:33:58;3.17;;;0.20;;
69502;SDS011;56704;54.242;12.442;2023-04-03T05:36:24;4.00;;;0.30;;
69502;SDS011;56704;54.242;12.442;2023-04-03T05:38:51;5.78;;;0.60;;
69502;SDS011;56704;54.242;12.442;2023-04-03T05:41:18;5.35;;;0.35;;
69502;SDS011;56704;54.242;12.442;2023-04-03T05:43:45;3.80;;;0.60;;
69502;SDS011;56704;54.242;12.442;2023-04-03T05:46:12;3.90;;;0.40;;
69502;SDS011;56704;54.242;12.442;2023-04-03T05:48:40;3.05;;;0.40;;
69502;SDS011;56704;54.242;12.442;2023-04-03T05:51:09;4.15;;;0.22;;
69502;SDS011;56704;54.242;12.442;2023-04-03T05:53:40;3.55;;;0.40;;
69502;SDS011;56704;54.242;12.442;2023-04-03T05:56:07;2.63;;;0.20;;
69502;SDS011;56704;54.242;12.442;2023-04-03T05:58:34;3.20;;;0.53;;
69502;SDS011;56704;54.242;12.442;2023-04-03T06:01:00;2.72;;;0.30;;
69502;SDS011;56704;54.242;12.442;2023-04-03T06:03:27;2.97;;;0.38;;
69502;SDS011;56704;54.242;12.442;2023-04-03T06:05:53;5.95;;;0.88;;
69502;SDS011;56704;54.242;12.442;2023-04-03T06:08:21;11.07;;;2.20;;
69502;SDS011;56704;54.242;12.442;2023-04-03T06:10:48;8.20;;;1.53;;
69502;SDS011;56704;54.242;12.442;2023-04-03T06:13:16;10.73;;;2.08;;
69502;SDS011;56704;54.242;12.442;2023-04-03T06:15:43;8.63;;;2.20;;
69502;SDS011;56704;54.242;12.442;2023-04-03T06:18:09;7.45;;;1.58;;
69502;SDS011;56704;54.242;12.442;2023-04-03T06:20:36;8.30;;;1.30;;
69502;SDS011;56704;54.242;12.442;2023-04-03T06:23:03;11.60;;;2.00;;
69502;SDS011;56704;54.242;12.442;2023-04-03T06:25:31;7.43;;;1.35;;
69502;SDS011;56704;54.242;12.442;2023-04-03T06:27:58;5.97;;;1.13;;
69502;SDS011;56704;54.242;12.442;2023-04-03T06:30:25;4.93;;;1.30;;
69502;SDS011;56704;54.242;12.442;2023-04-03T06:32:52;5.95;;;0.82;;
69502;SDS011;56704;54.242;12.442;2023-04-03T06:35:19;6.10;;;1.10;;
69502;SDS011;56704;54.242;12.442;2023-04-03T06:37:46;4.32;;;1.10;;
69502;SDS011;56704;54.242;12.442;2023-04-03T06:40:14;4.40;;;0.40;;
69502;SDS011;56704;54.242;12.442;2023-04-03T06:42:48;6.22;;;0.50;;
69502;SDS011;56704;54.242;12.442;2023-04-03T06:45:14;5.78;;;0.40;;
69502;SDS011;56704;54.242;12.442;2023-04-03T06:47:41;4.70;;;0.60;;
69502;SDS011;56704;54.242;12.442;2023-04-03T06:50:09;3.67;;;0.50;;
69502;SDS011;56704;54.242;12.442;2023-04-03T06:52:39;5.28;;;0.80;;
69502;SDS011;56704;54.242;12.442;2023-04-03T06:55:06;8.15;;;2.03;;
69502;SDS011;56704;54.242;12.442;2023-04-03T06:57:34;18.60;;;9.32;;
69502;SDS011;56704;54.242;12.442;2023-04-03T07:00:03;44.93;;;13.17;;
69502;SDS011;56704;54.242;12.442;2023-04-03T07:02:30;16.42;;;4.38;;
69502;SDS011;56704;54.242;12.442;2023-04-03T07:04:57;13.80;;;3.70;;
69502;SDS011;56704;54.242;12.442;2023-04-03T07:07:24;12.52;;;3.85;;
69502;SDS011;56704;54.242;12.442;2023-04-03T07:09:50;6.63;;;1.60;;
69502;SDS011;56704;54.242;12.442;2023-04-03T07:12:17;10.13;;;3.03;;
69502;SDS011;56704;54.242;12.442;2023-04-03T07:14:44;6.07;;;1.13;;
69502;SDS011;56704;54.242;12.442;2023-04-03T07:17:12;4.82;;;0.60;;
69502;SDS011;56704;54.242;12.442;2023-04-03T07:19:39;4.07;;;0.40;;
69502;SDS011;56704;54.242;12.442;2023-04-03T07:22:05;4.15;;;0.70;;
69502;SDS011;56704;54.242;12.442;2023-04-03T07:24:32;3.10;;;0.40;;
69502;SDS011;56704;54.242;12.442;2023-04-03T07:27:00;3.53;;;0.50;;
69502;SDS011;56704;54.242;12.442;2023-04-03T07:29:27;2.75;;;0.43;;
69502;SDS011;56704;54.242;12.442;2023-04-03T07:31:54;3.60;;;0.35;;
69502;SDS011;56704;54.242;12.442;2023-04-03T07:34:23;4.22;;;0.65;;
69502;SDS011;56704;54.242;12.442;2023-04-03T07:36:49;2.63;;;0.20;;
69502;SDS011;56704;54.242;12.442;2023-04-03T07:39:16;3.38;;;0.28;;
69502;SDS011;56704;54.242;12.442;2023-04-03T07:41:43;2.78;;;0.20;;
69502;SDS011;56704;54.242;12.442;2023-04-03T07:44:09;3.55;;;0.32;;
69502;SDS011;56704;54.242;12.442;2023-04-03T07:46:36;3.20;;;0.15;;
69502;SDS011;56704;54.242;12.442;2023-04-03T07:49:03;2.93;;;0.10;;
69502;SDS011;56704;54.242;12.442;2023-04-03T07:51:31;2.45;;;0.10;;
69502;SDS011;56704;54.242;12.442;2023-04-03T07:53:57;2.60;;;0.30;;
69502;SDS011;56704;54.242;12.442;2023-04-03T07:56:24;2.75;;;0.38;;
69502;SDS011;56704;54.242;12.442;2023-04-03T07:58:51;2.05;;;0.28;;
69502;SDS011;56704;54.242;12.442;2023-04-03T08:01:18;3.47;;;0.23;;
69502;SDS011;56704;54.242;12.442;2023-04-03T08:03:45;1.90;;;0.10;;
69502;SDS011;56704;54.242;12.442;2023-04-03T08:06:12;3.70;;;0.25;;
69502;SDS011;56704;54.242;12.442;2023-04-03T08:08:41;6.03;;;0.55;;
69502;SDS011;56704;54.242;12.442;2023-04-03T08:11:09;1.80;;;0.10;;
69502;SDS011;56704;54.242;12.442;2023-04-03T08:13:36;4.40;;;0.37;;
69502;SDS011;56704;54.242;12.442;2023-04-03T08:16:07;1.27;;;0.10;;
69502;SDS011;56704;54.242;12.442;2023-04-03T08:18:35;2.70;;;0.10;;
69502;SDS011;56704;54.242;12.442;2023-04-03T08:21:05;1.75;;;0.10;;
69502;SDS011;56704;54.242;12.442;2023-04-03T08:23:32;2.20;;;0.20;;
69502;SDS011;56704;54.242;12.442;2023-04-03T08:26:00;3.73;;;0.20;;
69502;SDS011;56704;54.242;12.442;2023-04-03T08:28:32;3.40;;;0.50;;
69502;SDS011;56704;54.242;12.442;2023-04-03T08:31:02;3.72;;;0.20;;
69502;SDS011;56704;54.242;12.442;2023-04-03T08:33:29;2.17;;;0.20;;
69502;SDS011;56704;54.242;12.442;2023-04-03T08:35:56;2.55;;;0.20;;
69502;SDS011;56704;54.242;12.442;2023-04-03T08:38:22;3.23;;;0.30;;
69502;SDS011;56704;54.242;12.442;2023-04-03T08:40:58;3.10;;;0.20;;
69502;SDS011;56704;54.242;12.442;2023-04-03T08:43:30;2.45;;;0.25;;
69502;SDS011;56704;54.242;12.442;2023-04-03T08:46:05;6.60;;;0.30;;
69502;SDS011;56704;54.242;12.442;2023-04-03T08:48:34;2.75;;;0.22;;
69502;SDS011;56704;54.242;12.442;2023-04-03T08:51:04;0.77;;;0.00;;
69502;SDS011;56704;54.242;12.442;2023-04-03T08:53:40;3.42;;;0.15;;
69502;SDS011;56704;54.242;12.442;2023-04-03T08:56:10;3.17;;;0.20;;
69502;SDS011;56704;54.242;12.442;2023-04-03T08:58:41;3.25;;;0.10;;
69502;SDS011;56704;54.242;12.442;2023-04-03T09:01:15;1.15;;;0.10;;
69502;SDS011;56704;54.242;12.442;2023-04-03T09:03:45;3.30;;;0.17;;
69502;SDS011;56704;54.242;12.442;2023-04-03T09:06:12;2.92;;;0.20;;
69502;SDS011;56704;54.242;12.442;2023-04-03T09:08:43;1.52;;;0.10;;
69502;SDS011;56704;54.242;12.442;2023-04-03T09:11:15;2.53;;;0.10;;
69502;SDS011;56704;54.242;12.442;2023-04-03T09:13:47;2.88;;;0.10;;
69502;SDS011;56704;54.242;12.442;2023-04-03T09:16:20;3.23;;;0.43;;
69502;SDS011;56704;54.242;12.442;2023-04-03T09:18:54;3.10;;;0.20;;
69502;SDS011;56704;54.242;12.442;2023-04-03T09:21:29;2.17;;;0.30;;
69502;SDS011;56704;54.242;12.442;2023-04-03T09:24:00;3.47;;;0.40;;
69502;SDS011;56704;54.242;12.442;2023-04-03T09:26:31;2.28;;;0.20;;
69502;SDS011;56704;54.242;12.442;2023-04-03T09:29:04;2.70;;;0.20;;
69502;SDS011;56704;54.242;12.442;2023-04-03T09:31:35;2.13;;;0.30;;
69502;SDS011;56704;54.242;12.442;2023-04-03T09:34:05;1.75;;;0.15;;
69502;SDS011;56704;54.242;12.442;2023-04-03T09:36:43;2.25;;;0.30;;
69502;SDS011;56704;54.242;12.442;2023-04-03T09:39:13;2.78;;;0.20;;
69502;SDS011;56704;54.242;12.442;2023-04-03T09:41:43;1.30;;;0.10;;
69502;SDS011;56704;54.242;12.442;2023-04-03T09:44:23;3.03;;;0.13;;
69502;SDS011;56704;54.242;12.442;2023-04-03T09:46:51;4.95;;;0.30;;
69502;SDS011;56704;54.242;12.442;2023-04-03T09:49:18;1.40;;;0.10;;
69502;SDS011;56704;54.242;12.442;2023-04-03T09:51:45;2.25;;;0.20;;
69502;SDS011;56704;54.242;12.442;2023-04-03T09:54:26;3.37;;;0.47;;
69502;SDS011;56704;54.242;12.442;2023-04-03T09:57:00;2.03;;;0.20;;
69502;SDS011;56704;54.242;12.442;2023-04-03T09:59:30;3.40;;;0.30;;
69502;SDS011;56704;54.242;12.442;2023-04-03T10:01:58;2.08;;;0.20;;
69502;SDS011;56704;54.242;12.442;2023-04-03T10:04:26;2.15;;;0.10;;
69502;SDS011;56704;54.242;12.442;2023-04-03T10:07:04;1.90;;;0.20;;
69502;SDS011;56704;54.242;12.442;2023-04-03T10:09:59;1.48;;;0.10;;
69502;SDS011;56704;54.242;12.442;2023-04-03T10:12:29;2.22;;;0.30;;
69502;SDS011;56704;54.242;12.442;2023-04-03T10:14:57;2.70;;;0.22;;
69502;SDS011;56704;54.242;12.442;2023-04-03T10:17:29;2.72;;;0.20;;
69502;SDS011;56704;54.242;12.442;2023-04-03T10:20:06;3.23;;;0.53;;
69502;SDS011;56704;54.242;12.442;2023-04-03T10:22:48;4.70;;;0.40;;
69502;SDS011;56704;54.242;12.442;2023-04-03T10:25:26;2.25;;;0.30;;
69502;SDS011;56704;54.242;12.442;2023-04-03T10:28:01;3.33;;;0.30;;
69502;SDS011;56704;54.242;12.442;2023-04-03T10:30:32;2.20;;;0.20;;
69502;SDS011;56704;54.242;12.442;2023-04-03T10:33:11;2.33;;;0.20;;
69502;SDS011;56704;54.242;12.442;2023-04-03T10:35:50;4.40;;;0.30;;
69502;SDS011;56704;54.242;12.442;2023-04-03T10:38:30;3.90;;;0.30;;
69502;SDS011;56704;54.242;12.442;2023-04-03T10:41:04;2.75;;;0.30;;
69502;SDS011;56704;54.242;12.442;2023-04-03T10:43:40;2.83;;;0.20;;
69502;SDS011;56704;54.242;12.442;2023-04-03T10:46:11;3.93;;;0.33;;
69502;SDS011;56704;54.242;12.442;2023-04-03T10:48:55;2.30;;;0.20;;
69502;SDS011;56704;54.242;12.442;2023-04-03T10:51:32;3.50;;;0.47;;
69502;SDS011;56704;54.242;12.442;2023-04-03T10:54:08;2.58;;;0.40;;
69502;SDS011;56704;54.242;12.442;2023-04-03T10:56:39;2.72;;;0.20;;
69502;SDS011;56704;54.242;12.442;2023-04-03T10:59:18;2.60;;;0.20;;
69502;SDS011;56704;54.242;12.442;2023-04-03T11:01:51;2.55;;;0.22;;
69502;SDS011;56704;54.242;12.442;2023-04-03T11:04:20;1.55;;;0.20;;
69502;SDS011;56704;54.242;12.442;2023-04-03T11:06:50;2.78;;;0.20;;
69502;SDS011;56704;54.242;12.442;2023-04-03T11:09:23;1.48;;;0.20;;
69502;SDS011;56704;54.242;12.442;2023-04-03T11:11:53;2.93;;;0.37;;
69502;SDS011;56704;54.242;12.442;2023-04-03T11:14:26;1.67;;;0.20;;
69502;SDS011;56704;54.242;12.442;2023-04-03T11:16:59;2.50;;;0.22;;
69502;SDS011;56704;54.242;12.442;2023-04-03T11:19:34;2.55;;;0.28;;
69502;SDS011;56704;54.242;12.442;2023-04-03T11:22:04;2.63;;;0.20;;
69502;SDS011;56704;54.242;12.442;2023-04-03T11:24:36;2.23;;;0.33;;
69502;SDS011;56704;54.242;12.442;2023-04-03T11:27:08;3.63;;;0.32;;
69502;SDS011;56704;54.242;12.442;2023-04-03T11:29:43;2.50;;;0.30;;
69502;SDS011;56704;54.242;12.442;2023-04-03T11:32:14;4.78;;;0.35;;
69502;SDS011;56704;54.242;12.442;2023-04-03T11:34:53;3.47;;;0.30;;
69502;SDS011;56704;54.242;12.442;2023-04-03T11:37:26;2.90;;;0.40;;
69502;SDS011;56704;54.242;12.442;2023-04-03T11:39:57;3.65;;;0.20;;
69502;SDS011;56704;54.242;12.442;2023-04-03T11:42:29;3.17;;;0.30;;
69502;SDS011;56704;54.242;12.442;2023-04-03T11:45:25;2.33;;;0.30;;
69502;SDS011;56704;54.242;12.442;2023-04-03T11:47:58;2.22;;;0.30;;
69502;SDS011;56704;54.242;12.442;2023-04-03T11:53:33;3.35;;;0.22;;
69502;SDS011;56704;54.242;12.442;2023-04-03T12:01:50;3.45;;;0.20;;
69502;SDS011;56704;54.242;12.442;2023-04-03T12:04:17;5.10;;;0.40;;
69502;SDS011;56704;54.242;12.442;2023-04-03T12:12:33;2.63;;;0.20;;
69502;SDS011;56704;54.242;12.442;2023-04-03T12:17:50;1.53;;;0.20;;
69502;SDS011;56704;54.242;12.442;2023-04-03T12:26:24;1.98;;;0.32;;
69502;SDS011;56704;54.242;12.442;2023-04-03T12:28:53;6.00;;;0.50;;
69502;SDS011;56704;54.242;12.442;2023-04-03T12:31:22;1.90;;;0.30;;
69502;SDS011;56704;54.242;12.442;2023-04-03T12:34:04;1.75;;;0.40;;
69502;SDS011;56704;54.242;12.442;2023-04-03T12:36:42;1.85;;;0.32;;
69502;SDS011;56704;54.242;12.442;2023-04-03T12:42:21;2.97;;;0.40;;
69502;SDS011;56704;54.242;12.442;2023-04-03T12:44:59;3.77;;;0.70;;
69502;SDS011;56704;54.242;12.442;2023-04-03T12:47:31;4.93;;;0.50;;
69502;SDS011;56704;54.242;12.442;2023-04-03T12:50:03;3.05;;;0.50;;
69502;SDS011;56704;54.242;12.442;2023-04-03T12:52:43;3.25;;;0.88;;
69502;SDS011;56704;54.242;12.442;2023-04-03T12:55:14;2.92;;;0.52;;
69502;SDS011;56704;54.242;12.442;2023-04-03T12:57:42;3.73;;;0.70;;
69502;SDS011;56704;54.242;12.442;2023-04-03T13:02:59;3.15;;;0.52;;
69502;SDS011;56704;54.242;12.442;2023-04-03T13:05:27;3.00;;;0.60;;
69502;SDS011;56704;54.242;12.442;2023-04-03T13:07:57;4.18;;;0.70;;
69502;SDS011;56704;54.242;12.442;2023-04-03T13:10:27;2.27;;;0.60;;
69502;SDS011;56704;54.242;12.442;2023-04-03T13:12:54;3.90;;;0.73;;
69502;SDS011;56704;54.242;12.442;2023-04-03T13:15:23;3.83;;;0.75;;
69502;SDS011;56704;54.242;12.442;2023-04-03T13:17:52;2.53;;;0.57;;
69502;SDS011;56704;54.242;12.442;2023-04-03T13:20:21;4.97;;;0.80;;
69502;SDS011;56704;54.242;12.442;2023-04-03T13:22:53;3.00;;;0.60;;
69502;SDS011;56704;54.242;12.442;2023-04-03T13:25:23;3.47;;;0.60;;
69502;SDS011;56704;54.242;12.442;2023-04-03T13:27:52;3.80;;;0.70;;
69502;SDS011;56704;54.242;12.442;2023-04-03T13:30:24;3.38;;;0.70;;
69502;SDS011;56704;54.242;12.442;2023-04-03T13:32:53;2.00;;;0.45;;
69502;SDS011;56704;54.242;12.442;2023-04-03T13:35:28;3.03;;;0.70;;
69502;SDS011;56704;54.242;12.442;2023-04-03T13:38:00;2.45;;;0.57;;
69502;SDS011;56704;54.242;12.442;2023-04-03T13:40:30;3.75;;;0.80;;
69502;SDS011;56704;54.242;12.442;2023-04-03T13:43:01;1.98;;;0.60;;
69502;SDS011;56704;54.242;12.442;2023-04-03T13:45:30;3.45;;;0.70;;
69502;SDS011;56704;54.242;12.442;2023-04-03T13:48:08;4.40;;;0.70;;
69502;SDS011;56704;54.242;12.442;2023-04-03T13:50:52;4.20;;;0.70;;
69502;SDS011;56704;54.242;12.442;2023-04-03T13:53:23;3.47;;;0.68;;
69502;SDS011;56704;54.242;12.442;2023-04-03T13:55:58;2.47;;;0.52;;
69502;SDS011;56704;54.242;12.442;2023-04-03T13:58:31;3.45;;;0.70;;
69502;SDS011;56704;54.242;12.442;2023-04-03T14:01:00;3.43;;;0.67;;
69502;SDS011;56704;54.242;12.442;2023-04-03T14:03:39;2.13;;;0.47;;
69502;SDS011;56704;54.242;12.442;2023-04-03T14:06:09;5.18;;;1.42;;
69502;SDS011;56704;54.242;12.442;2023-04-03T14:08:39;2.53;;;0.47;;
69502;SDS011;56704;54.242;12.442;2023-04-03T14:11:08;4.18;;;0.55;;
69502;SDS011;56704;54.242;12.442;2023-04-03T14:13:36;3.43;;;0.40;;
69502;SDS011;56704;54.242;12.442;2023-04-03T14:16:04;3.25;;;0.50;;
69502;SDS011;56704;54.242;12.442;2023-04-03T14:18:30;2.25;;;0.40;;
69502;SDS011;56704;54.242;12.442;2023-04-03T14:20:57;4.22;;;0.60;;
69502;SDS011;56704;54.242;12.442;2023-04-03T14:23:24;4.55;;;0.50;;
69502;SDS011;56704;54.242;12.442;2023-04-03T14:25:52;2.53;;;0.40;;
69502;SDS011;56704;54.242;12.442;2023-04-03T14:28:20;3.95;;;0.50;;
69502;SDS011;56704;54.242;12.442;2023-04-03T14:30:48;2.28;;;0.32;;
69502;SDS011;56704;54.242;12.442;2023-04-03T14:33:17;3.50;;;0.50;;
69502;SDS011;56704;54.242;12.442;2023-04-03T14:35:46;1.83;;;0.40;;
69502;SDS011;56704;54.242;12.442;2023-04-03T14:38:20;3.50;;;0.70;;
69502;SDS011;56704;54.242;12.442;2023-04-03T14:40:49;4.72;;;0.60;;
69502;SDS011;56704;54.242;12.442;2023-04-03T14:43:18;5.00;;;0.65;;
69502;SDS011;56704;54.242;12.442;2023-04-03T14:45:45;3.92;;;0.43;;
69502;SDS011;56704;54.242;12.442;2023-04-03T14:48:15;4.68;;;0.60;;
69502;SDS011;56704;54.242;12.442;2023-04-03T14:50:44;2.87;;;0.60;;
69502;SDS011;56704;54.242;12.442;2023-04-03T14:53:11;3.03;;;0.70;;
69502;SDS011;56704;54.242;12.442;2023-04-03T14:55:39;1.83;;;0.35;;
69502;SDS011;56704;54.242;12.442;2023-04-03T14:58:08;2.53;;;0.63;;
69502;SDS011;56704;54.242;12.442;2023-04-03T15:00:39;4.75;;;0.90;;
69502;SDS011;56704;54.242;12.442;2023-04-03T15:03:06;2.63;;;0.43;;
69502;SDS011;56704;54.242;12.442;2023-04-03T15:05:36;3.60;;;0.60;;
69502;SDS011;56704;54.242;12.442;2023-04-03T15:08:02;2.50;;;0.57;;
69502;SDS011;56704;54.242;12.442;2023-04-03T15:10:29;3.03;;;0.60;;
69502;SDS011;56704;54.242;12.442;2023-04-03T15:15:40;2.73;;;0.50;;
69502;SDS011;56704;54.242;12.442;2023-04-03T15:18:09;3.28;;;0.50;;